Startpagina
METAR-TAF:

METAR-TAF

Vliegvelden :

Barranquilla, Colombia

breedte: 10-53N, lengte: 074-47W, hoogte: 14 m

Actueel weer

Dit bericht is 9 minuten geleden gemaakt, om 11:00 UTC
Wind 2 kt uit variabele richting
Temperatuur 26°C
Vochtigheid 100%
Druk 1009 hPa
Zicht: 1800 m
Gebroken wolken op 500 ft
nevel

METAR: SKBQ 191100Z VRB02KT 1800 BR BKN005 26/26 A2979

Tijdstip: 06:09 (11:09 UTC)

Verwachting

Dit bericht is 6 uur en het 9 minuten geleden gemaakt, om 05:00 UTC
Verwachting geldig van 19 om 06 UTC tot 20 om 06 UTC
Wind 12 kt uit het noorden
Zicht 10 km of meer
Weinig wolken op 1500 ft
Kans 40% :
Tijdelijke
van 19 om 10 UTC tot 19 om 12 UTC
Zicht: 5000 m
Verspreide wolken op 1000 ft
nevel
Wijzigt naar
van 19 om 15 UTC tot 19 om 17 UTC
Wind 12 kt uit het noordwesten

TAF: SKBQ 190500Z 1906/2006 01012KT 9999 FEW015 PROB40 TEMPO 1910/1912 5000 BR SCT010 BECMG 1915/1917 32012KT TX33/1918Z TN24/1910Z

Waarnemingen en weersverwachtingen van meer dan 4000 vliegvelden (METAR en TAF).

De beschikbare stations zijn de gele en rode punten op de kaart.

Ga met uw muis naar het station om de naam te zien.

Klik dan om waarnemingen en weersverwachtingen te zien.

kaart wijzigen: klik op de groene knoppen met een zwart kruis om in te zoomen, op de groene knop met een streepje om uit te zoomen of op de groene pijlen voor aangrenzende kaarten.


METAR-TAF: